»·PEaware :: N221XG KSNA-KMYF

N221XG :: KSNA-KMYF

FLIGHT INFORMATION

Flight Status: Arrived
Operator: Privately registered:
United States
More flights under this callsign
Pilot: Ryan L. (9775)
Aircraft: BEECH AIRCRAFT SUPER KING AIR 350
(B350)
More flights by this aircraft type
Origin: KSNA John Wayne-Orange Co
United States
Destination: KMYF Montgomery
United States
More flights between these airports :: More routes between these airports
Route: +V25 PACIF V208 LAX118 CARDI MZB320 MZB
File this flight plan on PilotEdge
Remarks:
Altitude:
(Current/Filed)
9,000ft
Speed:
(Current/Filed)
250kts
Departed: 20-Apr-19 07:58 PM
Arrived: 20-Apr-19 08:31 PM
Distance/Time
Traveled:
63nm/0:33
Distance/Time
To Go:
Arrived

Flight Plot

Page will automatically refresh every two minutes.


Map Options




Map Legend


Flown Route
Filed Route
Departure Airport
Arrival Airport
Navaid (VOR, NDB)
Fix

Horizontal Profiles

Position Reports

Time Latitude Longitude Heading Altitude Ground
Speed
20-Apr-19 19:30 33.671596 -117.867559 208 61ft 0kts
20-Apr-19 19:31 33.671596 -117.867559 208 61ft 0kts
20-Apr-19 19:32 33.671596 -117.867559 208 61ft 0kts
20-Apr-19 19:33 33.671596 -117.867559 208 61ft 0kts
20-Apr-19 19:34 33.671596 -117.867559 208 61ft 0kts
20-Apr-19 19:35 33.671596 -117.867559 208 61ft 0kts
20-Apr-19 19:36 33.671596 -117.867559 208 61ft 0kts
20-Apr-19 19:37 33.671596 -117.867559 208 61ft 0kts
20-Apr-19 19:38 33.671596 -117.867559 208 61ft 0kts
20-Apr-19 19:39 33.671596 -117.867559 208 61ft 0kts
20-Apr-19 19:40 33.671596 -117.867559 208 61ft 0kts
20-Apr-19 19:41 33.671596 -117.867559 208 61ft 0kts
20-Apr-19 19:42 33.671596 -117.867559 208 61ft 0kts
20-Apr-19 19:43 33.671596 -117.867559 208 61ft 0kts
20-Apr-19 19:44 33.671596 -117.867559 208 61ft 0kts
20-Apr-19 19:45 33.671596 -117.867559 208 61ft 0kts
20-Apr-19 19:46 33.671596 -117.867559 208 61ft 0kts
20-Apr-19 19:47 33.671507 -117.867616 207 61ft 1kts
20-Apr-19 19:48 33.671417 -117.867903 287 61ft 0kts
20-Apr-19 19:49 33.671417 -117.867903 287 61ft 0kts
20-Apr-19 19:50 33.671417 -117.867903 288 61ft 0kts
20-Apr-19 19:51 33.672600 -117.867811 33 61ft 14kts
20-Apr-19 19:52 33.675747 -117.866056 27 61ft 14kts
20-Apr-19 19:53 33.679386 -117.863738 28 61ft 14kts
20-Apr-19 19:54 33.680476 -117.864782 297 61ft 0kts
20-Apr-19 19:55 33.680476 -117.864782 297 61ft 0kts
20-Apr-19 19:56 33.680555 -117.864968 296 61ft 5kts
20-Apr-19 19:57 33.674664 -117.869450 206 75ft 108kts
20-Apr-19 19:58 33.639867 -117.881080 187 1745ft 144kts
20-Apr-19 19:59 33.599315 -117.884770 187 3705ft 149kts
20-Apr-19 20:00 33.555549 -117.888130 186 5017ft 187kts
20-Apr-19 20:01 33.494721 -117.893781 186 5020ft 240kts
20-Apr-19 20:02 33.445724 -117.863164 99 6792ft 198kts
20-Apr-19 20:03 33.426048 -117.801080 122 8669ft 205kts
20-Apr-19 20:04 33.392924 -117.733619 121 9027ft 266kts
20-Apr-19 20:05 33.353736 -117.652184 121 9009ft 288kts
20-Apr-19 20:06 33.312787 -117.570438 123 9008ft 283kts
20-Apr-19 20:07 33.269547 -117.491694 140 8976ft 280kts
20-Apr-19 20:08 33.199570 -117.456796 159 9000ft 274kts
20-Apr-19 20:09 33.130432 -117.417800 158 9008ft 274kts
20-Apr-19 20:10 33.061187 -117.379402 158 9015ft 274kts
20-Apr-19 20:11 32.992625 -117.338888 139 8994ft 280kts
20-Apr-19 20:12 32.961326 -117.253586 111 9017ft 283kts
20-Apr-19 20:13 32.934005 -117.165743 111 9024ft 283kts
20-Apr-19 20:14 32.906865 -117.077979 111 9001ft 269kts
20-Apr-19 20:15 32.883904 -117.002265 111 9016ft 229kts
20-Apr-19 20:16 32.861907 -116.929081 111 9024ft 233kts
20-Apr-19 20:17 32.840417 -116.857079 111 9023ft 227kts
20-Apr-19 20:18 32.819374 -116.786098 111 7597ft 221kts
20-Apr-19 20:19 32.786345 -116.742035 199 6086ft 174kts
20-Apr-19 20:20 32.741698 -116.757638 200 5036ft 165kts
20-Apr-19 20:21 32.708884 -116.787216 265 5045ft 159kts
20-Apr-19 20:22 32.705292 -116.840495 265 5026ft 162kts
20-Apr-19 20:23 32.717489 -116.889957 292 4846ft 142kts
20-Apr-19 20:24 32.733130 -116.929470 292 4190ft 133kts
20-Apr-19 20:25 32.749197 -116.970025 293 3474ft 139kts
20-Apr-19 20:26 32.765469 -117.011138 293 2709ft 135kts
20-Apr-19 20:27 32.781422 -117.051493 293 1986ft 129kts
20-Apr-19 20:28 32.794644 -117.084929 294 1160ft 105kts
20-Apr-19 20:29 32.807192 -117.116948 295 780ft 100kts
20-Apr-19 20:30 32.816216 -117.139987 239 430ft 7kts
20-Apr-19 20:31 32.815712 -117.141064 245 430ft 1kts
20-Apr-19 20:32 32.814700 -117.141641 115 430ft 5kts
20-Apr-19 20:33 32.813373 -117.140433 243 430ft 3kts
20-Apr-19 20:34 32.813201 -117.140825 246 430ft 0kts
20-Apr-19 20:35 32.813201 -117.140825 246 430ft 0kts

Navigation Log

Ident Type
Flight plan parsing failed, navigation log unavailable